Tiempo atmosférico en la estación meteorológica de Valderredible, Polientes, Cantabria (720 m.)



Fecha
DESCASC
Temp. máxima en grados centígrados (hora)
DESCASC
Temp. mínima en grados centígrados (hora)
DESCASC
Temp. media en grados centígrados
DESCASC
Racha de viento máxima en m/sg (hora)
DESCASC
Velocidad máxima media en intervalos de 10 minutos(hora)
DESCASC
Precipitaciones diarias en mm
DESCASC
Precipitaciones de 00:00 a 06:00 en mm
DESCASC
Precipitaciones de 06:00 a 12:00 en mm
DESCASC
Precipitaciones de 12:00 a 18:00 en mm
DESCASC
Precipitaciones de 18:00 a 24:00 en mm
DESCASC
04-03-2021 18.5 (15:30) 0.6 (02:40) 9.6 5.28 (16:30) 2.22 (17:00) 0 0 0 0 0
03-03-2021 16.6 (16:40) 3.3 (23:59) 10 6.11 (14:20) 3.33 (13:50) 0 0 0 0 0
02-03-2021 16.4 (15:30) 7.7 (07:10) 12 9.72 (14:50) 5 (15:40) 0.3 0 0 0 0.3
01-03-2021 15.2 (15:10) 4.5 (07:30) 9.8 11.67 (02:00) 3.89 (02:00) 3.9 3.9 0 0 0
28-02-2021 8.2 (13:40) -2.5 (-00:0) 2.8 5.83 (13:20) 3.33 (13:20) 1.7 0 0 0 1.7
27-02-2021 13.6 (15:40) 3.6 (00:00) 8.6 8.33 (15:10) 3.06 (05:50) 0 0 0 0 0
26-02-2021 12.8 (15:30) 6.2 (00:00) 9.5 5.28 (22:30) 2.5 (14:20) 0 0 0 0 0
25-02-2021 12 (14:00) 2.9 (00:00) 7.5 5.56 (16:00) 3.06 (15:40) 0 0 0 0 0
24-02-2021 16.8 (16:20) 3.1 (00:00) 9.9 12.5 (11:50) 6.67 (17:00) 0 0 0 0 0
23-02-2021 13.9 (15:30) -1.5 (-00:0) 6.2 11.11 (11:50) 6.39 (11:50) 0 0 0 0 0
22-02-2021 11.8 (16:00) 0.9 (00:00) 6.4 4.72 (13:10) 2.5 (19:50) 6.4 6.4 0 0 0
21-02-2021 14.1 (02:30) 2.1 (00:00) 8.1 11.39 (05:10) 5 (01:10) 10.9 0 0 0.1 10.8
20-02-2021 16.1 (14:00) 9 (00:00) 12.6 18.61 (13:00) 8.61 (05:10) 0 0 0 0 0
19-02-2021 15.6 (14:50) 7.4 (00:00) 11.5 16.67 (13:50) 9.17 (13:30) 0 0 0 0 0
18-02-2021 13.8 (17:00) 8.6 (00:00) 11.2 18.33 (05:40) 9.72 (05:40) 0.2 0 0.1 0.1 0
17-02-2021 14.9 (16:00) 6.2 (00:00) 10.5 12.5 (15:10) 6.67 (15:10) 0 0 0 0 0
16-02-2021 13.4 (15:50) 3.4 (00:00) 8.4 13.33 (13:00) 6.67 (11:30) 0 0 0 0 0
15-02-2021 14.8 (15:20) 3.3 (00:00) 9.1 8.89 (11:10) 5 (11:00) 0 0 0 0 0
14-02-2021 13.7 (16:00) -1.3 (-00:0) 6.2 8.89 (13:10) 5 (20:40) 0 0 0 0 0
13-02-2021 14.7 (15:40) 1.3 (00:00) 8 4.44 (13:20) 2.22 (13:20) 0 0 0 0 0
12-02-2021 12.3 (16:10) 1.9 (00:00) 7.1 12.78 (03:00) 5.83 (01:40) 4.6 0.8 3.7 0.1 0
11-02-2021 12.6 (14:40) 6.6 (00:00) 9.6 9.72 (22:30) 5 (22:30) 0 0 0 0 0
10-02-2021 12.1 (15:00) 0.2 (00:00) 6.2 8.89 (16:30) 4.17 (14:40) 0.6 0.6 0 0 0
09-02-2021 7.9 (16:10) 4.5 (00:00) 6.2 19.72 (07:30) 9.72 (08:40) 8.4 0.3 5.3 2.8 0
08-02-2021 11.4 (15:20) 2.4 (00:00) 6.9 11.11 (13:30) 6.39 (13:40) 0.5 0.5 0 0 0
07-02-2021 6.7 (15:10) -3.2 (-00:0) 1.7 10.56 (23:30) 5.56 (21:10) 0 0 0 0 0
06-02-2021 7.5 (00:10) 0.8 (00:00) 4.2 6.67 (18:10) 3.06 (14:10) 15.3 11.4 3 0.9 0
05-02-2021 10.1 (15:30) 5.4 (00:00) 7.8 5.56 (19:20) 2.5 (15:40) 6.3 0.4 5.4 0.5 0
04-02-2021 10.6 (12:40) 5.4 (00:00) 8 11.67 (01:50) 5.83 (01:00) 5.4 0 0 2.7 2.7
03-02-2021 14.1 (15:10) 8.6 (00:00) 11.4 18.61 (01:40) 9.72 (00:10) 0.7 0.4 0.3 0 0

Gráficas

Temp. máximas Temp. mínimas Temp. medias Precipitaciones Rachas de viento máximas Velocidades máximas media en intervalos de 10 minutos

Datos horarios

Fecha y hora oficial Temperatura (ºC) Velocidad del viento (km/h) Dirección del viento Racha (km/h) Dirección de racha Precipitación (mm) Presión (hPa) Tendencia (hPa) Humedad (%)
2021-03-04 23:00:00 4.8 0 Calma 6 Noroeste 0 -- -- 85
2021-03-04 22:00:00 6.3 4 Norte 9 Noroeste 0 -- -- 79
2021-03-04 21:00:00 7.1 4 Norte 11 Norte 0 -- -- 69
2021-03-04 20:00:00 9.4 4 Norte 8 Norte 0 -- -- 57
2021-03-04 19:00:00 12.5 6 Norte 12 Nordeste 0 -- -- 43
2021-03-04 18:00:00 15.3 5 Nordeste 17 Nordeste 0 -- -- 33
2021-03-04 17:00:00 16.4 8 Nordeste 19 Nordeste 0 -- -- 31
2021-03-04 16:00:00 17.5 5 Nordeste 14 Este 0 -- -- 26
2021-03-04 15:00:00 16.8 4 Este 12 Este 0 -- -- 33
2021-03-04 14:00:00 14.5 4 Este 9 Este 0 -- -- 54
2021-03-04 13:00:00 10.1 3 Sudeste 8 Sudeste 0 -- -- 75
2021-03-04 12:00:00 6.1 3 Sudoeste 5 Sudoeste 0 -- -- 95
2021-03-04 11:00:00 4.1 3 Sudoeste 6 Sudoeste 0 -- -- 95
2021-03-04 10:00:00 3.5 2 Sudoeste 7 Sur 0 -- -- 95
2021-03-04 09:00:00 2.8 5 Sudoeste 9 Sudoeste 0 -- -- 95
2021-03-04 08:00:00 2.7 0 Calma 6 Sudoeste 0 -- -- 95
2021-03-04 07:00:00 2.6 3 Sudoeste 6 Sudoeste 0 -- -- 95
2021-03-04 06:00:00 2.3 0 Calma 5 Norte 0 -- -- 95
2021-03-04 05:00:00 1.9 0 Calma 4 Sudoeste 0 -- -- 95
2021-03-04 04:00:00 1.4 2 Sudoeste 4 Sur 0 -- -- 94
2021-03-04 03:00:00 1 0 Calma -- -- 0 -- -- 94
2021-03-04 02:00:00 1.4 0 Calma 4 Norte 0 -- -- 92
2021-03-04 01:00:00 2.1 2 Noroeste 6 Noroeste 0 -- -- 91
2021-03-04 00:00:00 3.3 0 Calma 5 Noroeste 0 -- -- 88
2021-03-03 23:00:00 4.6 3 Norte 6 Norte 0 -- -- 83
2021-03-03 22:00:00 5.8 4 Nordeste 10 Noroeste 0 -- -- 76
2021-03-03 21:00:00 6.8 6 Norte 13 Norte 0 -- -- 71
2021-03-03 20:00:00 8.2 7 Norte 12 Norte 0 -- -- 63
2021-03-03 19:00:00 11.5 0 Calma 14 Sudoeste 0 -- -- 47
2021-03-03 18:00:00 14.7 8 Sudoeste 18 Sudoeste 0 -- -- 39
2021-03-03 17:00:00 15.8 8 Sudoeste 18 Sur 0 -- -- 39
2021-03-03 16:00:00 15.8 9 Sudoeste 18 Sudoeste 0 -- -- 41
2021-03-03 15:00:00 14.4 12 Sudoeste 22 Sudoeste 0 -- -- 42
2021-03-03 14:00:00 14.1 12 Oeste 20 Sudoeste 0 -- -- 47
2021-03-03 13:00:00 13.1 2 Sur 9 Este 0 -- -- 59
2021-03-03 12:00:00 11.4 3 Sur 9 Nordeste 0 -- -- 65
2021-03-03 11:00:00 10.4 3 Nordeste 9 Este 0 -- -- 75
2021-03-03 10:00:00 7.9 3 Nordeste 6 Este 0 -- -- 85
2021-03-03 09:00:00 5.6 0 Calma 9 Noroeste 0 -- -- 94
2021-03-03 08:00:00 4.7 0 Calma 8 Norte 0 -- -- 93
2021-03-03 07:00:00 5 5 Norte 10 Noroeste 0 -- -- 92
2021-03-03 06:00:00 5.9 3 Nordeste 11 Nordeste 0 -- -- 90
2021-03-03 05:00:00 6.9 6 Nordeste 15 Norte 0 -- -- 87
2021-03-03 04:00:00 7.6 5 Nordeste 11 Noroeste 0 -- -- 86
2021-03-03 03:00:00 8 3 Norte 15 Nordeste 0 -- -- 81
2021-03-03 02:00:00 8 5 Nordeste 14 Nordeste 0 -- -- 83
2021-03-03 01:00:00 7.8 4 Sur 17 Sudeste 0 -- -- 85
2021-03-03 00:00:00 7.9 0 Calma 6 Norte 0 -- -- 92
2021-03-02 23:00:00 8.8 0 Calma 16 Nordeste 0.3 -- -- 86
2021-03-02 22:00:00 9.3 8 Este 22 Sudeste 0 -- -- 74
2021-03-02 21:00:00 9.3 2 Oeste 26 Sudeste 0 -- -- 71
2021-03-02 20:00:00 10.4 10 Sudeste 35 Sudeste 0 -- -- 68
2021-03-02 19:00:00 12.6 0 Calma 21 Sudoeste 0 -- -- 55
2021-03-02 18:00:00 13.5 7 Sudoeste 21 Sudoeste 0 -- -- 51
2021-03-02 17:00:00 14 12 Sudoeste 29 Sudoeste 0 -- -- 47
2021-03-02 16:00:00 14.3 15 Sudoeste 35 Sudoeste 0 -- -- 46
2021-03-02 15:00:00 15.3 15 Sudoeste 35 Sudoeste 0 -- -- 47
2021-03-02 14:00:00 15.3 10 Sur 30 Sudoeste 0 -- -- 47
2021-03-02 13:00:00 14.4 10 Sur 27 Sudoeste 0 -- -- 50
2021-03-02 12:00:00 12.7 13 Sur 31 Sudoeste 0 -- -- 55
2021-03-02 11:00:00 12.4 0 Calma 14 Sudeste 0 -- -- 58
2021-03-02 10:00:00 8.9 4 Oeste 12 Sur 0 -- -- 73
2021-03-02 09:00:00 8.6 2 Norte 18 Oeste 0 -- -- 75
2021-03-02 08:00:00 7.9 10 Sudoeste 18 Sudoeste 0 -- -- 76
2021-03-02 07:00:00 7.9 0 Calma 9 Nordeste 0 -- -- 78
2021-03-02 06:00:00 8.2 4 Nordeste 16 Sudoeste 0 -- -- 75
2021-03-02 05:00:00 8.9 0 Calma 26 Sur 0 -- -- 71
2021-03-02 04:00:00 8.8 9 Sur 26 Sur 0 -- -- 72
2021-03-02 03:00:00 9.4 12 Sur 26 Sur 0 -- -- 71
2021-03-02 02:00:00 8.8 9 Sudoeste 18 Sudoeste 0 -- -- 75
2021-03-02 01:00:00 8.3 8 Sudoeste 17 Sudoeste 0 -- -- 77
2021-03-02 00:00:00 8.1 2 Sudoeste 18 Sudoeste 0 -- -- 78
2021-03-01 23:00:00 7.8 3 Noroeste 12 Este 0 -- -- 78
2021-03-01 22:00:00 8 4 Noroeste 14 Este 0 -- -- 76
2021-03-01 21:00:00 8.9 2 Sudeste 18 Este 0 -- -- 72
2021-03-01 20:00:00 10.1 5 Este 20 Sudeste 0 -- -- 58
2021-03-01 19:00:00 10.6 9 Sudeste 26 Sudeste 0 -- -- 54
2021-03-01 18:00:00 11.3 9 Sudeste 27 Sudeste 0 -- -- 52
2021-03-01 17:00:00 12.8 8 Sur 34 Sudeste 0 -- -- 50
2021-03-01 16:00:00 12.4 9 Sudeste 28 Sudoeste 0 -- -- 50
2021-03-01 15:00:00 14.3 9 Sur 26 Sudoeste 0 -- -- 47
2021-03-01 14:00:00 13.7 10 Sur 33 Sudeste 0 -- -- 48
2021-03-01 13:00:00 11 12 Sudeste 32 Sudeste 0 -- -- 58
2021-03-01 12:00:00 10 5 Sudeste 21 Este 0 -- -- 61
2021-03-01 11:00:00 9.6 2 Este 15 Nordeste 0 -- -- 67
2021-03-01 10:00:00 7 6 Nordeste 19 Este 0 -- -- 75
2021-03-01 09:00:00 6 5 Nordeste 12 Nordeste 0 -- -- 86
2021-03-01 08:00:00 4.8 5 Noroeste 13 Nordeste 0 -- -- 88
2021-03-01 07:00:00 4.9 5 Noroeste 16 Norte 0 -- -- 91
2021-03-01 06:00:00 5.2 0 Calma 6 Oeste 0 -- -- 94
2021-03-01 05:00:00 5.6 0 Calma 7 Oeste 0 -- -- 93
2021-03-01 04:00:00 6.3 3 Oeste 27 Sudeste 2.3 -- -- 88
2021-03-01 03:00:00 7.1 9 Sur 35 Sudeste 0.8 -- -- 79
2021-03-01 02:00:00 6.7 14 Sur 42 Sudeste 0.7 -- -- 80
2021-03-01 01:00:00 7.6 9 Sur 28 Sudeste 0.1 -- -- 78
2021-03-01 00:00:00 7.3 6 Sur 18 Sur 0.9 -- -- 87
2021-02-28 23:00:00 5.9 0 Calma 8 Oeste 0.5 -- -- 92
2021-02-28 22:00:00 6.5 2 Sudoeste 9 Nordeste 0 -- -- 90
2021-02-28 21:00:00 6.5 4 Nordeste 13 Nordeste 0.3 -- -- 87
2021-02-28 20:00:00 6.6 5 Norte 13 Nordeste 0 -- -- 83
2021-02-28 19:00:00 7 8 Nordeste 20 Nordeste 0 -- -- 78
2021-02-28 18:00:00 7.8 7 Nordeste 19 Norte 0 -- -- 69
2021-02-28 17:00:00 7.9 8 Nordeste 17 Nordeste 0 -- -- 68
2021-02-28 16:00:00 7.1 8 Nordeste 15 Nordeste 0 -- -- 70
2021-02-28 15:00:00 7 7 Nordeste 20 Nordeste 0 -- -- 72
2021-02-28 14:00:00 7.3 9 Nordeste 21 Nordeste 0 -- -- 70
2021-02-28 13:00:00 7 8 Nordeste 17 Nordeste 0 -- -- 73
2021-02-28 12:00:00 5 0 Calma 7 Sudoeste 0 -- -- 81
2021-02-28 11:00:00 2.2 0 Calma 3 Sudoeste 0 -- -- 91
2021-02-28 10:00:00 0.6 0 Calma 4 Sudoeste 0 -- -- 95
2021-02-28 09:00:00 -0.9 0 Calma 4 Nordeste 0 -- -- 95
2021-02-28 08:00:00 -2.2 0 Calma 5 Norte 0 -- -- 95
2021-02-28 07:00:00 -2.2 0 Calma 8 Noroeste 0 -- -- 94
2021-02-28 06:00:00 -1.6 0 Calma 9 Noroeste 0 -- -- 92
2021-02-28 05:00:00 -0.4 5 Norte 9 Norte 0 -- -- 90
2021-02-28 04:00:00 1.4 0 Calma 10 Este 0 -- -- 86
2021-02-28 03:00:00 3.5 4 Nordeste 13 Nordeste 0 -- -- 79
2021-02-28 02:00:00 4.3 2 Este 12 Nordeste 0 -- -- 79
2021-02-28 01:00:00 4.6 5 Nordeste 19 Nordeste 0 -- -- 78
2021-02-28 00:00:00 4.4 4 Nordeste 18 Nordeste 0 -- -- 82
2021-02-27 23:00:00 4.3 7 Nordeste 19 Norte 0 -- -- 83
2021-02-27 22:00:00 4.1 9 Nordeste 24 Nordeste 0 -- -- 84
2021-02-27 21:00:00 4.3 4 Nordeste 23 Nordeste 0 -- -- 82
2021-02-27 20:00:00 5.1 6 Nordeste 17 Nordeste 0 -- -- 74
2021-02-27 19:00:00 7.2 2 Este 14 Norte 0 -- -- 61
2021-02-27 18:00:00 9.6 5 Nordeste 21 Nordeste 0 -- -- 52
2021-02-27 17:00:00 12.3 4 Nordeste 21 Nordeste 0 -- -- 49
2021-02-27 16:00:00 12.2 9 Nordeste 30 Norte 0 -- -- 47
2021-02-27 15:00:00 13.4 8 Norte -- -- -- -- -- 49
2021-02-27 14:00:00 11.7 8 Nordeste 29 Nordeste 0 -- -- 55
2021-02-27 13:00:00 11.4 9 Nordeste 22 Nordeste 0 -- -- 60
2021-02-27 12:00:00 9.7 10 Nordeste 21 Nordeste 0 -- -- 68
2021-02-27 11:00:00 8.9 7 Norte 15 Este 0 -- -- 71
2021-02-27 10:00:00 8 6 Nordeste 15 Nordeste 0 -- -- 74
2021-02-27 09:00:00 7.6 3 Nordeste 19 Nordeste 0 -- -- 75
2021-02-27 08:00:00 7.4 8 Nordeste 17 Nordeste 0 -- -- 75
2021-02-27 07:00:00 7.4 4 Nordeste 16 Nordeste 0 -- -- 74
2021-02-27 06:00:00 7.4 7 Nordeste 29 Nordeste 0 -- -- 73
2021-02-27 05:00:00 7.7 8 Nordeste 20 Nordeste 0 -- -- 75
2021-02-27 04:00:00 7.6 6 Nordeste 15 Nordeste 0 -- -- 75
2021-02-27 03:00:00 7.7 6 Nordeste 17 Nordeste 0 -- -- 74
2021-02-27 02:00:00 7.7 8 Nordeste 24 Nordeste 0 -- -- 73
2021-02-27 01:00:00 7.9 8 Nordeste 16 Nordeste 0 -- -- 75
2021-02-27 00:00:00 8.3 6 Nordeste 16 Nordeste 0 -- -- 74
2021-02-26 23:00:00 8.3 7 Nordeste 19 Nordeste 0 -- -- 73
2021-02-26 22:00:00 8.5 7 Nordeste 17 Norte 0 -- -- 72
2021-02-26 21:00:00 8.8 7 Nordeste 17 Norte 0 -- -- 71
2021-02-26 20:00:00 9.2 6 Nordeste 14 Nordeste 0 -- -- 71
2021-02-26 19:00:00 9.5 5 Nordeste 12 Nordeste 0 -- -- 71
2021-02-26 18:00:00 10.1 6 Nordeste 17 Nordeste 0 -- -- 70
2021-02-26 17:00:00 11.2 6 Nordeste 16 Nordeste 0 -- -- 63
2021-02-26 16:00:00 12.2 8 Nordeste 19 Nordeste 0 -- -- 58
2021-02-26 15:00:00 12.3 7 Nordeste 19 Nordeste 0 -- -- 55
2021-02-26 14:00:00 11.3 8 Nordeste 17 Nordeste 0 -- -- 61
2021-02-26 13:00:00 9.8 6 Este 18 Este 0 -- -- 69
2021-02-26 12:00:00 9.4 8 Nordeste 17 Nordeste 0 -- -- 70
2021-02-26 11:00:00 9.1 5 Nordeste 14 Este 0 -- -- 74
2021-02-26 10:00:00 8.9 4 Nordeste 12 Nordeste 0 -- -- 77
2021-02-26 09:00:00 8 4 Nordeste 10 Nordeste 0 -- -- 83
2021-02-26 08:00:00 7.8 3 Nordeste 13 Nordeste 0 -- -- 87
2021-02-26 07:00:00 7.9 5 Nordeste 12 Nordeste 0 -- -- 87
2021-02-26 06:00:00 7.5 3 Nordeste 5 Nordeste 0 -- -- 89
2021-02-26 05:00:00 7.3 2 Nordeste 7 Nordeste 0 -- -- 89
2021-02-26 04:00:00 7.2 2 Este 7 Nordeste 0 -- -- 90
2021-02-26 03:00:00 7.1 3 Nordeste 5 Nordeste 0 -- -- 90
2021-02-26 02:00:00 6.7 0 Calma 3 Nordeste 0 -- -- 89
2021-02-26 01:00:00 6.4 0 Calma 3 Oeste 0 -- -- 89
2021-02-26 00:00:00 6.2 0 Calma 4 Sur 0 -- -- 89
2021-02-25 23:00:00 5.8 0 Calma 3 Noroeste 0 -- -- 88
2021-02-25 22:00:00 5.4 3 Norte 5 Noroeste 0 -- -- 87
2021-02-25 21:00:00 5.9 0 Calma 12 Nordeste 0 -- -- 84
2021-02-25 20:00:00 7.4 4 Nordeste 10 Nordeste 0 -- -- 78
2021-02-25 19:00:00 8.8 3 Nordeste 8 Sudeste 0 -- -- 71
2021-02-25 18:00:00 10.3 4 Nordeste 13 Nordeste 0 -- -- 65
2021-02-25 17:00:00 11.1 5 Nordeste 17 Nordeste 0 -- -- 61
2021-02-25 16:00:00 10.7 9 Nordeste 20 Nordeste 0 -- -- 61
2021-02-25 15:00:00 11.4 8 Nordeste 15 Nordeste 0 -- -- 61
2021-02-25 14:00:00 11.5 4 Nordeste 14 Sudeste 0 -- -- 61
2021-02-25 13:00:00 10 5 Sur 12 Sudeste 0 -- -- 69
2021-02-25 12:00:00 8.9 3 Sur 12 Sudeste 0 -- -- 75
2021-02-25 11:00:00 7.7 0 Calma 6 Sudoeste 0 -- -- 84
2021-02-25 10:00:00 5.8 2 Este 4 Noroeste 0 -- -- 89
2021-02-25 09:00:00 4.2 3 Norte 6 Noroeste 0 -- -- 91
2021-02-25 08:00:00 3.2 3 Noroeste 8 Noroeste 0 -- -- 91
2021-02-25 07:00:00 3.3 2 Sur 9 Sudoeste 0 -- -- 90
2021-02-25 06:00:00 4.5 2 Noroeste 10 Noroeste 0 -- -- 86
2021-02-25 05:00:00 5.7 5 Norte 8 Norte 0 -- -- 79
2021-02-25 04:00:00 7.8 4 Oeste 18 Oeste 0 -- -- 70
2021-02-25 03:00:00 8.6 9 Oeste 16 Oeste 0 -- -- 68
2021-02-25 02:00:00 8.9 5 Sudoeste 18 Oeste 0 -- -- 66
2021-02-25 01:00:00 9.3 9 Sudoeste 19 Sudoeste 0 -- -- 66
2021-02-25 00:00:00 8.4 5 Sudoeste 10 Sudoeste 0 -- -- 68
2021-02-24 23:00:00 8.1 3 Sudoeste 13 Sudoeste 0 -- -- 60
2021-02-24 22:00:00 10.7 8 Sudoeste 20 Sudoeste 0 -- -- 49
2021-02-24 21:00:00 11.9 11 Sudoeste 26 Sudoeste 0 -- -- 44
2021-02-24 20:00:00 13.2 13 Sudoeste 29 Sudoeste 0 -- -- 42
2021-02-24 19:00:00 13.8 16 Sudoeste 33 Sudoeste 0 -- -- 42
2021-02-24 18:00:00 15.3 18 Sudoeste 44 Sudoeste 0 -- -- 40
2021-02-24 17:00:00 16.2 24 Sudoeste 41 Sudoeste 0 -- -- 37
2021-02-24 16:00:00 16.2 18 Sudoeste 45 Sudoeste 0 -- -- 40
2021-02-24 15:00:00 15.7 19 Sudoeste 42 Sudoeste 0 -- -- 43
2021-02-24 14:00:00 14.6 18 Sur 41 Sudoeste 0 -- -- 44
2021-02-24 13:00:00 13.3 17 Sudoeste 37 Sudoeste 0 -- -- 47
2021-02-24 12:00:00 11.4 21 Sudoeste 45 Sudoeste 0 -- -- 52
2021-02-24 11:00:00 10.1 15 Sur 34 Sudoeste 0 -- -- 57
2021-02-24 10:00:00 8.9 17 Sudoeste 37 Sur 0 -- -- 65
2021-02-24 09:00:00 6.3 11 Sudoeste 22 Oeste 0 -- -- 74
2021-02-24 08:00:00 4.5 8 Sudoeste 15 Sudoeste 0 -- -- 78
2021-02-24 07:00:00 5.1 11 Sudoeste 24 Sudoeste 0 -- -- 75
2021-02-24 06:00:00 5.3 12 Sudoeste 22 Sudoeste 0 -- -- 75
2021-02-24 05:00:00 5.3 13 Sudoeste 21 Sudoeste 0 -- -- 74
2021-02-24 04:00:00 4.5 7 Sudoeste 15 Sudoeste 0 -- -- 78
2021-02-24 03:00:00 3.9 5 Oeste 10 Sudoeste 0 -- -- 84
2021-02-24 02:00:00 4 4 Sudoeste 9 Sudoeste 0 -- -- 85
2021-02-24 01:00:00 4 0 Calma 12 Sudoeste 0 -- -- 84
2021-02-24 00:00:00 3.4 5 Sudoeste 11 Sudoeste 0 -- -- 84
2021-02-23 23:00:00 3.8 0 Calma 8 Oeste 0 -- -- 79
2021-02-23 22:00:00 4.3 3 Sudoeste 6 Oeste 0 -- -- 74
2021-02-23 21:00:00 4.9 0 Calma 4 Oeste 0 -- -- 69
2021-02-23 20:00:00 6.6 3 Sudoeste 15 Sudoeste 0 -- -- 55
2021-02-23 19:00:00 10 10 Sudoeste 25 Sudoeste 0 -- -- 42
2021-02-23 18:00:00 12.4 14 Sudoeste 32 Sudoeste 0 -- -- 33
2021-02-23 17:00:00 13.7 16 Sudoeste 39 Sudoeste 0 -- -- 29
2021-02-23 16:00:00 13.4 18 Sudoeste 36 Sudoeste 0 -- -- 29
2021-02-23 15:00:00 13 18 Sudoeste 40 Sudoeste 0 -- -- 36
2021-02-23 14:00:00 11.7 20 Sudoeste 37 Sudoeste 0 -- -- 41
2021-02-23 13:00:00 10.8 19 Sudoeste 38 Oeste 0 -- -- 52
2021-02-23 12:00:00 9 21 Sudoeste 40 Sudoeste 0 -- -- 56
2021-02-23 11:00:00 8.4 18 Sudoeste 36 Sudoeste 0 -- -- 54
2021-02-23 10:00:00 6.6 13 Sudoeste 24 Sudoeste 0 -- -- 63
2021-02-23 09:00:00 3.5 13 Sudoeste 19 Oeste 0 -- -- 76
2021-02-23 08:00:00 2.6 10 Sudoeste 18 Sudoeste 0 -- -- 82
2021-02-23 07:00:00 1.4 4 Sudoeste 14 Sudoeste 0 -- -- 89
2021-02-23 06:00:00 0.7 4 Sudoeste 9 Sur 0 -- -- 93
2021-02-23 05:00:00 0.6 0 Calma 15 Sudoeste 0 -- -- 95
2021-02-23 04:00:00 -1.3 0 Calma 5 Sudoeste 0 -- -- 95
2021-02-23 03:00:00 -1.1 0 Calma 3 Sudeste 0 -- -- 95
2021-02-23 02:00:00 -0.6 0 Calma 6 Norte 0 -- -- 94
2021-02-23 01:00:00 0 0 Calma 3 Oeste 0 -- -- 93
2021-02-23 00:00:00 0.9 0 Calma 9 Noroeste 0 -- -- 92
2021-02-22 23:00:00 1.6 4 Noroeste 10 Norte 0 -- -- 90
2021-02-22 22:00:00 2.1 6 Norte 12 Noroeste 0 -- -- 88
2021-02-22 21:00:00 3.4 5 Norte 14 Noroeste 0 -- -- 84
2021-02-22 20:00:00 4.1 7 Norte 14 Noroeste 0 -- -- 82
2021-02-22 19:00:00 6.2 4 Norte 10 Norte 0 -- -- 69
2021-02-22 18:00:00 9.7 4 Sudoeste 11 Sudoeste 0 -- -- 46
2021-02-22 17:00:00 11 5 Oeste 12 Este 0 -- -- 44
2021-02-22 16:00:00 11.6 5 Sudeste 13 Sudeste 0 -- -- 46
2021-02-22 15:00:00 9.8 7 Este 16 Este 0 -- -- 50
2021-02-22 14:00:00 8.5 6 Nordeste 17 Nordeste 0 -- -- 56
2021-02-22 13:00:00 8.6 5 Norte 14 Nordeste 0 -- -- 56
2021-02-22 12:00:00 7.4 4 Norte 15 Norte 0 -- -- 65
2021-02-22 11:00:00 5.9 3 Sudoeste 9 Sudoeste 0 -- -- 79
2021-02-22 10:00:00 4.8 0 Calma 9 Noroeste 0 -- -- 89
2021-02-22 09:00:00 3.7 0 Calma 5 Noroeste 0 -- -- 95
2021-02-22 08:00:00 2.7 0 Calma 6 Noroeste 0 -- -- 95
2021-02-22 07:00:00 2.4 0 Calma 5 Noroeste 0 -- -- 95
2021-02-22 06:00:00 2.2 2 Sudoeste 7 Noroeste 0.2 -- -- 95
2021-02-22 05:00:00 1.6 2 Noroeste 6 Norte 0.8 -- -- 95
2021-02-22 04:00:00 1.4 3 Nordeste 9 Este 1.9 -- -- 95
2021-02-22 03:00:00 2 4 Este 9 Este 1.2 -- -- 95
2021-02-22 02:00:00 1.9 4 Nordeste 12 Nordeste 0.9 -- -- 95
2021-02-22 01:00:00 1.5 5 Nordeste 14 Este 1.4 -- -- 94
2021-02-22 00:00:00 2.1 4 Este 17 Este 1.2 -- -- 93
2021-02-21 23:00:00 2.5 8 Nordeste 21 Nordeste 1.7 -- -- 92
2021-02-21 22:00:00 3.9 8 Nordeste 20 Nordeste 2.4 -- -- 91
2021-02-21 21:00:00 5.3 9 Este 22 Este 3 -- -- 92
2021-02-21 20:00:00 7.7 5 Nordeste 10 Nordeste 1.6 -- -- 92
2021-02-21 19:00:00 8 3 Norte 10 Nordeste 0.9 -- -- 88
2021-02-21 18:00:00 9.1 5 Nordeste 21 Nordeste 0.1 -- -- 76
2021-02-21 17:00:00 10.3 3 Nordeste 17 Sur 0 -- -- 65
2021-02-21 16:00:00 10.4 10 Sudeste 24 Este 0 -- -- 63
2021-02-21 15:00:00 10.8 5 Sudeste 22 Este 0 -- -- 57
2021-02-21 14:00:00 11.1 7 Sur 20 Sur 0 -- -- 51
2021-02-21 13:00:00 10.9 11 Sur 28 Sudoeste 0 -- -- 49
2021-02-21 12:00:00 12.2 10 Sur 27 Sudoeste 0 -- -- 43
2021-02-21 11:00:00 11.7 8 Sur 28 Sudeste 0 -- -- 44
2021-02-21 10:00:00 11.7 15 Sur 40 Sur 0 -- -- 41
2021-02-21 09:00:00 11.7 11 Sur 34 Sur 0 -- -- 42
2021-02-21 08:00:00 11.7 13 Sur 37 Sudeste 0 -- -- 42
2021-02-21 07:00:00 12.2 12 Sur 37 Sudeste 0 -- -- 41
2021-02-21 06:00:00 12.2 15 Sur 41 Sur 0 -- -- 42
2021-02-21 05:00:00 12.4 15 Sur 33 Sudeste 0 -- -- 39
2021-02-21 04:00:00 13.3 10 Sur 30 Sur 0 -- -- 34
2021-02-21 03:00:00 13.7 16 Sur 35 Sur 0 -- -- 31
2021-02-21 02:00:00 13.6 14 Sur 36 Sur 0 -- -- 29
2021-02-21 01:00:00 13.4 16 Sur 35 Sudoeste 0 -- -- 30
2021-02-21 00:00:00 13.1 16 Sudoeste 34 Sudoeste 0 -- -- 32
2021-02-20 23:00:00 13.2 14 Sur 38 Sudoeste 0 -- -- 33
2021-02-20 22:00:00 13.2 17 Sudoeste 45 Sudoeste 0 -- -- 34
2021-02-20 21:00:00 13.2 22 Sudoeste 48 Sudoeste 0 -- -- 35
2021-02-20 20:00:00 13.2 11 Sur 33 Sudoeste 0 -- -- 34
2021-02-20 19:00:00 13.7 18 Sudoeste 42 Sudoeste 0 -- -- 32
2021-02-20 18:00:00 14.1 23 Sur 62 Sudoeste 0 -- -- 31
2021-02-20 17:00:00 13.9 17 Sur 41 Sudoeste 0 -- -- 33
2021-02-20 16:00:00 15.2 17 Sudoeste 49 Sudoeste 0 -- -- 33
2021-02-20 15:00:00 15.2 19 Sudoeste 54 Sudoeste 0 -- -- 33
2021-02-20 14:00:00 16 30 Sudoeste 63 Sur 0 -- -- 33
2021-02-20 13:00:00 14.1 31 Sur 67 Sur 0 -- -- 38
2021-02-20 12:00:00 13.6 22 Sur 55 Sudoeste 0 -- -- 41
2021-02-20 11:00:00 12.9 29 Sudoeste 57 Sudoeste 0 -- -- 43
2021-02-20 10:00:00 12.2 24 Sudoeste 58 Sudoeste 0 -- -- 44
2021-02-20 09:00:00 10.9 22 Sudoeste 55 Sudoeste 0 -- -- 47
2021-02-20 08:00:00 10.6 22 Sudoeste 58 Sudoeste 0 -- -- 44
2021-02-20 07:00:00 10.4 26 Sudoeste 57 Sudoeste 0 -- -- 43
2021-02-20 06:00:00 10.5 31 Sudoeste 60 Sur 0 -- -- 47
2021-02-20 05:00:00 9.7 29 Sudoeste 58 Sur 0 -- -- 51
2021-02-20 04:00:00 9.4 28 Sudoeste 51 Sudoeste 0 -- -- 51
2021-02-20 03:00:00 9.6 15 Sudoeste 43 Sudoeste 0 -- -- 53
2021-02-20 02:00:00 9.9 18 Sudoeste 42 Sudoeste 0 -- -- 55
2021-02-20 01:00:00 9.4 16 Sudoeste 34 Sudoeste 0 -- -- 57
2021-02-20 00:00:00 9.7 13 Sudoeste 31 Sudoeste 0 -- -- 52
2021-02-19 23:00:00 9.8 12 Sudoeste 25 Sudoeste 0 -- -- 51
2021-02-19 22:00:00 7.4 0 Calma 11 Sudoeste 0 -- -- 64
2021-02-19 21:00:00 10.2 8 Sudoeste 26 Sudoeste 0 -- -- 51
2021-02-19 20:00:00 11.3 12 Sudoeste 26 Sudoeste 0 -- -- 44
2021-02-19 19:00:00 12.2 14 Sudoeste 35 Sudoeste 0 -- -- 42
2021-02-19 18:00:00 13.7 23 Sudoeste 50 Sudoeste 0 -- -- 40
2021-02-19 17:00:00 14.9 26 Sudoeste 53 Sudoeste 0 -- -- 37
2021-02-19 16:00:00 14.7 23 Sudoeste 48 Sudoeste 0 -- -- 38
2021-02-19 15:00:00 14.1 20 Sudoeste 56 Sudoeste 0 -- -- 40
2021-02-19 14:00:00 13.8 29 Sudoeste 60 Sudoeste 0 -- -- 40
2021-02-19 13:00:00 12.7 26 Sudoeste 44 Sudoeste 0 -- -- 58
2021-02-19 12:00:00 11 21 Sudoeste 45 Sudoeste 0 -- -- 63
2021-02-19 11:00:00 10.9 24 Sudoeste 40 Sudoeste 0 -- -- 61
2021-02-19 10:00:00 10 17 Sudoeste 35 Sur 0 -- -- 70
2021-02-19 09:00:00 9.3 19 Sudoeste 44 Sudoeste 0 -- -- 75
2021-02-19 08:00:00 8.9 20 Sudoeste 43 Sudoeste 0 -- -- 77
2021-02-19 07:00:00 9 22 Sudoeste 42 Sudoeste 0 -- -- 74
2021-02-19 06:00:00 9.3 23 Sudoeste 51 Sudoeste 0 -- -- 73
2021-02-19 05:00:00 9.4 24 Sudoeste 44 Sudoeste 0 -- -- 74
2021-02-19 04:00:00 9 20 Sudoeste 42 Sudoeste 0 -- -- 74
2021-02-19 03:00:00 9.5 23 Sudoeste 49 Sudoeste 0 -- -- 75
2021-02-19 02:00:00 9.3 25 Sudoeste 48 Sudoeste 0 -- -- 81
2021-02-19 01:00:00 9.7 29 Sudoeste 50 Sudoeste 0 -- -- 77
2021-02-19 00:00:00 9.6 27 Sudoeste 49 Sudoeste 0 -- -- 77
2021-02-18 23:00:00 9.8 22 Sudoeste 40 Sudoeste 0 -- -- 74
2021-02-18 22:00:00 9.7 21 Sudoeste 43 Sudoeste 0 -- -- 75
2021-02-18 21:00:00 9.8 18 Sudoeste 39 Sudoeste 0 -- -- 73
2021-02-18 20:00:00 10.2 17 Sudoeste 36 Sudoeste 0 -- -- 69
2021-02-18 19:00:00 10.7 17 Sudoeste 27 Sudoeste 0 -- -- 67
2021-02-18 18:00:00 11.3 14 Sudoeste 41 Sudoeste 0 -- -- 61
2021-02-18 17:00:00 12.8 17 Sudoeste 45 Sudoeste 0 -- -- 56
2021-02-18 16:00:00 12.1 23 Sudoeste 43 Sudoeste 0 -- -- 59
2021-02-18 15:00:00 11.5 19 Sudoeste 42 Sudoeste 0 -- -- 65
2021-02-18 14:00:00 10.2 21 Sudoeste 41 Sudoeste 0 -- -- 69
2021-02-18 13:00:00 9.8 17 Sudoeste 46 Sudoeste 0.1 -- -- 73
2021-02-18 12:00:00 10.4 22 Sudoeste 40 Sudoeste 0.1 -- -- 67
2021-02-18 11:00:00 9.5 19 Sudoeste 45 Sur 0 -- -- 70
2021-02-18 10:00:00 9.8 28 Sudoeste 53 Sudoeste 0 -- -- 69
2021-02-18 09:00:00 9.1 27 Sudoeste 49 Sur 0 -- -- 72
2021-02-18 08:00:00 8.7 25 Sudoeste 51 Sudoeste 0 -- -- 74
2021-02-18 07:00:00 9.2 28 Sudoeste 62 Sudoeste 0 -- -- 73
2021-02-18 06:00:00 9.2 31 Sudoeste 66 Sudoeste 0 -- -- 72
2021-02-18 05:00:00 9.6 28 Sudoeste 62 Sudoeste 0 -- -- 72
2021-02-18 04:00:00 9.6 24 Sudoeste 55 Sudoeste 0 -- -- 72
2021-02-18 03:00:00 9.3 14 Sudoeste 45 Sudoeste 0 -- -- 70
2021-02-18 02:00:00 9.7 19 Sudoeste 39 Sudoeste 0 -- -- 70
2021-02-18 01:00:00 9.6 13 Sur 34 Sudoeste 0 -- -- 71
2021-02-18 00:00:00 10.6 18 Sudoeste 37 Sudoeste 0 -- -- 67
2021-02-17 23:00:00 10.8 17 Sudoeste 35 Sudoeste 0 -- -- 72
2021-02-17 22:00:00 10.9 14 Sudoeste 31 Sur 0 -- -- 73
2021-02-17 21:00:00 11 9 Sudoeste 33 Sudoeste 0 -- -- 70
2021-02-17 20:00:00 11.8 13 Sudoeste 31 Sudoeste 0 -- -- 69
2021-02-17 19:00:00 11.5 12 Sudoeste 28 Sudoeste 0 -- -- 69
2021-02-17 18:00:00 11.8 12 Sudoeste 33 Sudoeste 0 -- -- 65
2021-02-17 17:00:00 13 19 Sudoeste 35 Sur 0 -- -- 56
2021-02-17 16:00:00 14.3 19 Sudoeste 45 Sudoeste 0 -- -- 50
2021-02-17 15:00:00 12.7 20 Sudoeste 44 Sudoeste 0 -- -- 53
2021-02-17 14:00:00 12.8 18 Sudoeste 34 Sudoeste 0 -- -- 59
2021-02-17 13:00:00 12.2 16 Sudoeste 36 Sudoeste 0 -- -- 61
2021-02-17 12:00:00 10.7 18 Sudoeste 35 Sudoeste 0 -- -- 71
2021-02-17 11:00:00 10.2 17 Sudoeste 31 Sudoeste 0 -- -- 75
2021-02-17 10:00:00 9 16 Sudoeste 32 Sur 0 -- -- 79
2021-02-17 09:00:00 7.3 2 Sudoeste 13 Oeste 0 -- -- 84
2021-02-17 08:00:00 7.1 7 Oeste 16 Oeste 0 -- -- 83
2021-02-17 07:00:00 7.6 6 Oeste 17 Oeste 0 -- -- 80
2021-02-17 06:00:00 7.4 9 Oeste 19 Oeste 0 -- -- 80
2021-02-17 05:00:00 7.2 6 Oeste 14 Oeste 0 -- -- 82
2021-02-17 04:00:00 6.9 4 Oeste 11 Sudoeste 0 -- -- 83
2021-02-17 03:00:00 6.9 6 Sudoeste 16 Oeste 0 -- -- 81
2021-02-17 02:00:00 7.3 8 Oeste 17 Oeste 0 -- -- 82
2021-02-17 01:00:00 6.7 0 Calma 12 Noroeste 0 -- -- 84
2021-02-17 00:00:00 6.4 3 Noroeste 11 Sudoeste 0 -- -- 83
2021-02-16 23:00:00 8.4 7 Sudoeste 17 Sudoeste 0 -- -- 77
2021-02-16 22:00:00 8.7 8 Sudoeste 19 Oeste 0 -- -- 79
2021-02-16 21:00:00 7.5 5 Sudoeste 7 Sudoeste 0 -- -- 78
2021-02-16 20:00:00 9.3 2 Sudoeste 17 Sudoeste 0 -- -- 70
2021-02-16 19:00:00 10.6 12 Sudoeste 33 Sudoeste 0 -- -- 65
2021-02-16 18:00:00 11.9 15 Sudoeste 28 Sudoeste 0 -- -- 62
2021-02-16 17:00:00 11.8 18 Sudoeste 33 Sudoeste 0 -- -- 61
2021-02-16 16:00:00 12.7 18 Sudoeste 35 Oeste 0 -- -- 58
2021-02-16 15:00:00 11.7 17 Sudoeste 45 Sudoeste 0 -- -- 60
2021-02-16 14:00:00 11.5 21 Sudoeste 37 Sudoeste 0 -- -- 57
2021-02-16 13:00:00 12.6 23 Sudoeste 48 Sudoeste 0 -- -- 54
2021-02-16 12:00:00 11.9 19 Sudoeste 42 Sudoeste 0 -- -- 54
2021-02-16 11:00:00 11.8 21 Sudoeste 41 Sudoeste 0 -- -- 54
2021-02-16 10:00:00 9.5 15 Sudoeste 31 Sudoeste 0 -- -- 61
2021-02-16 09:00:00 7.3 13 Sudoeste 23 Sudoeste 0 -- -- 71
2021-02-16 08:00:00 4.2 5 Norte 18 Sudoeste 0 -- -- 77
2021-02-16 07:00:00 6.5 8 Oeste 18 Oeste 0 -- -- 67
2021-02-16 06:00:00 6.9 7 Oeste 22 Sudoeste 0 -- -- 65
2021-02-16 05:00:00 8.5 4 Oeste 15 Sudoeste 0 -- -- 59
2021-02-16 04:00:00 7.9 4 Norte 14 Oeste 0 -- -- 61
2021-02-16 03:00:00 9.7 5 Oeste 18 Oeste 0 -- -- 54
2021-02-16 02:00:00 10.5 8 Sudoeste 18 Oeste 0 -- -- 52
2021-02-16 01:00:00 10.4 7 Noroeste 14 Oeste 0 -- -- 54
2021-02-16 00:00:00 10 6 Oeste 26 Sur 0 -- -- 57
2021-02-15 23:00:00 10 9 Sudoeste 32 Sur 0 -- -- 60
2021-02-15 22:00:00 7.9 5 Noroeste 31 Sudoeste 0 -- -- 76
2021-02-15 21:00:00 7 0 Calma 14 Este 0 -- -- 79
2021-02-15 20:00:00 8.5 4 Sudeste 16 Sur 0 -- -- 68
2021-02-15 19:00:00 11.3 2 Sur 9 Sudoeste 0 -- -- 56
2021-02-15 18:00:00 13.9 5 Sudoeste 14 Sudoeste 0 -- -- 48
2021-02-15 17:00:00 14.3 10 Sudoeste 23 Sudoeste 0 -- -- 44
2021-02-15 16:00:00 14.3 13 Sudoeste 28 Sudoeste 0 -- -- 41
2021-02-15 15:00:00 14.4 18 Sudoeste 31 Sudoeste 0 -- -- 39
2021-02-15 14:00:00 14.4 10 Sudoeste 21 Sur 0 -- -- 44
2021-02-15 13:00:00 13.6 11 Sur 25 Sur 0 -- -- 47
2021-02-15 12:00:00 13 17 Sudoeste 32 Sudoeste 0 -- -- 48
2021-02-15 11:00:00 11.5 18 Sudoeste 30 Sudoeste 0 -- -- 55
2021-02-15 10:00:00 9.7 15 Sudoeste 26 Sudoeste 0 -- -- 58
2021-02-15 09:00:00 8.7 8 Oeste 25 Sudoeste 0 -- -- 61
2021-02-15 08:00:00 8.2 12 Sudoeste 26 Sudoeste 0 -- -- 63
2021-02-15 07:00:00 8.1 11 Sudoeste 24 Sudoeste 0 -- -- 66
2021-02-15 06:00:00 8.3 9 Sudoeste 24 Sudoeste 0 -- -- 66
2021-02-15 05:00:00 8.2 11 Sur 21 Sudoeste 0 -- -- 67
2021-02-15 04:00:00 9 14 Sudoeste 25 Sudoeste 0 -- -- 66
2021-02-15 03:00:00 8.7 10 Sur 24 Sudoeste 0 -- -- 71
2021-02-15 02:00:00 6.9 4 Este 12 Sudeste 0 -- -- 81
2021-02-15 01:00:00 3.5 0 Calma 6 Oeste 0 -- -- 93
2021-02-15 00:00:00 4.6 2 Oeste 9 Nordeste 0 -- -- 92
2021-02-14 23:00:00 5 0 Calma 7 Sudoeste 0 -- -- 89
2021-02-14 22:00:00 7.3 5 Oeste 15 Sudoeste 0 -- -- 83
2021-02-14 21:00:00 9 11 Oeste 24 Sudoeste 0 -- -- 76
2021-02-14 20:00:00 10.2 17 Sudoeste 27 Sudoeste 0 -- -- 71
2021-02-14 19:00:00 10.7 13 Sudoeste 21 Sudoeste 0 -- -- 67
2021-02-14 18:00:00 11.9 10 Sudoeste 16 Sudoeste 0 -- -- 61
2021-02-14 17:00:00 12.3 8 Sudoeste 26 Sudoeste 0 -- -- 58
2021-02-14 16:00:00 12.9 10 Sudoeste 31 Sudoeste 0 -- -- 56
2021-02-14 15:00:00 11.6 17 Sudoeste 29 Sudoeste 0 -- -- 65
2021-02-14 14:00:00 10.4 11 Sudoeste 32 Sudoeste 0 -- -- 68
2021-02-14 13:00:00 11.1 17 Sudoeste 29 Sudoeste 0 -- -- 66
2021-02-14 12:00:00 9.7 12 Sudoeste 22 Sudoeste 0 -- -- 78
2021-02-14 11:00:00 4.5 0 Calma 7 Sudoeste 0 -- -- 95
2021-02-14 10:00:00 0.4 0 Calma 5 Sudeste 0 -- -- 95
2021-02-14 09:00:00 -0.7 0 Calma 6 Nordeste 0 -- -- 95
2021-02-14 08:00:00 -1.3 0 Calma 5 Nordeste 0 -- -- 95
2021-02-14 07:00:00 -1.1 0 Calma 4 Este 0 -- -- 95
2021-02-14 06:00:00 -0.7 0 Calma 5 Sudoeste 0 -- -- 95
2021-02-14 05:00:00 -0.6 3 Sudoeste 5 Sudoeste 0 -- -- 95
2021-02-14 04:00:00 -0.4 0 Calma 6 Nordeste 0 -- -- 95
2021-02-14 03:00:00 -0.4 3 Nordeste 5 Nordeste 0 -- -- 94
2021-02-14 02:00:00 0 0 Calma 2 Nordeste 0 -- -- 93
2021-02-14 01:00:00 0.9 0 Calma 3 Oeste 0 -- -- 93
2021-02-14 00:00:00 1.5 0 Calma 5 Sudoeste 0 -- -- 92
2021-02-13 23:00:00 3.1 4 Noroeste 7 Norte 0 -- -- 90
2021-02-13 22:00:00 3.9 0 Calma 10 Noroeste 0 -- -- 87
2021-02-13 21:00:00 5.1 3 Noroeste 12 Noroeste 0 -- -- 83
2021-02-13 20:00:00 6.4 6 Noroeste 11 Norte 0 -- -- 78
2021-02-13 19:00:00 9.7 2 Sudoeste 7 Sur 0 -- -- 56
2021-02-13 18:00:00 11.9 3 Sudoeste 10 Sudoeste 0 -- -- 51
2021-02-13 17:00:00 12.3 2 Nordeste 10 Norte 0 -- -- 48
2021-02-13 16:00:00 13.3 6 Sur 15 Sudoeste 0 -- -- 46
2021-02-13 15:00:00 13.6 4 Sudoeste 11 Sudoeste 0 -- -- 44
2021-02-13 14:00:00 11.7 4 Sudeste 16 Sudoeste 0 -- -- 54
2021-02-13 13:00:00 9.3 4 Sudoeste 12 Sudoeste 0 -- -- 70
2021-02-13 08:00:00 4.3 4 Sudoeste 7 Sudoeste 0 -- -- 95
2021-02-13 07:00:00 4.6 5 Sudoeste 8 Sudoeste 0 -- -- 95
2021-02-13 06:00:00 4.2 0 Calma 5 Sudoeste 0 -- -- 95
2021-02-13 05:00:00 4.2 3 Sudoeste 11 Sudoeste 0 -- -- 95
2021-02-13 04:00:00 4.4 5 Sudoeste 9 Sudoeste 0 -- -- 95
2021-02-13 03:00:00 3.7 5 Sudoeste 9 Sudoeste 0 -- -- 95
2021-02-13 02:00:00 2.5 0 Calma 4 Sudoeste 0 -- -- 95
2021-02-13 01:00:00 1.5 0 Calma 3 Sudoeste 0 -- -- 95
2021-02-13 00:00:00 1.9 0 Calma 7 Norte 0 -- -- 94
2021-02-12 23:00:00 2.9 5 Norte 10 Noroeste 0 -- -- 93
2021-02-12 22:00:00 3.8 5 Noroeste 12 Noroeste 0 -- -- 92
2021-02-12 21:00:00 5.3 6 Norte 9 Norte 0 -- -- 90
2021-02-12 20:00:00 7.8 0 Calma 10 Este 0 -- -- 81
2021-02-12 19:00:00 8.5 5 Nordeste 12 Este 0 -- -- 79
2021-02-12 18:00:00 8.8 6 Este 25 Nordeste 0 -- -- 77
2021-02-12 17:00:00 10 9 Nordeste 27 Nordeste 0 -- -- 70
2021-02-12 16:00:00 11.9 12 Nordeste 29 Nordeste 0 -- -- 65
2021-02-12 15:00:00 11.6 7 Noroeste 18 Noroeste 0 -- -- 61
2021-02-12 14:00:00 10.7 3 Noroeste 19 Norte 0.1 -- -- 72
2021-02-12 13:00:00 10.8 2 Sudeste 7 Sudoeste 0 -- -- 76
2021-02-12 12:00:00 9.9 0 Calma 4 Sur 0 -- -- 83
2021-02-12 11:00:00 8.3 2 Sudoeste 6 Noroeste 1.3 -- -- 92
2021-02-12 10:00:00 7.9 4 Noroeste 19 Sudoeste 2 -- -- 91
2021-02-12 09:00:00 8.4 0 Calma 7 Sudoeste 0.1 -- -- 91
2021-02-12 08:00:00 8.8 4 Sudoeste 14 Sudoeste 0.3 -- -- 86
2021-02-12 07:00:00 9 4 Sudoeste 10 Sudoeste 0 -- -- 83
2021-02-12 06:00:00 9.6 3 Noroeste 22 Sudoeste 0 -- -- 80
2021-02-12 05:00:00 10.2 14 Sudoeste 33 Sudoeste 0.1 -- -- 79
2021-02-12 04:00:00 10.5 16 Sudoeste 39 Sudoeste 0.3 -- -- 83
2021-02-12 03:00:00 10.6 20 Sudoeste 46 Sudoeste 0.4 -- -- 85
2021-02-12 02:00:00 11 19 Sudoeste 40 Sudoeste 0 -- -- 77
2021-02-12 01:00:00 11.3 15 Sudoeste 33 Sudoeste 0 -- -- 75
2021-02-12 00:00:00 11.8 15 Sudoeste 32 Sudoeste 0 -- -- 74
2021-02-11 23:00:00 12.1 14 Sudoeste 35 Sudoeste 0 -- -- 74
2021-02-11 22:00:00 12.1 14 Sudoeste 31 Sudoeste 0 -- -- 75
2021-02-11 21:00:00 11.8 10 Sudoeste 22 Sudoeste 0 -- -- 79
2021-02-11 20:00:00 9.7 0 Calma 6 Norte 0 -- -- 81
2021-02-11 19:00:00 10.9 0 Calma 7 Oeste 0 -- -- 74
2021-02-11 18:00:00 11.8 4 Sudoeste 22 Sudoeste 0 -- -- 69
2021-02-11 17:00:00 12.1 12 Sudoeste 30 Sudoeste 0 -- -- 65
2021-02-11 16:00:00 12.3 17 Sudoeste 33 Oeste 0 -- -- 63
2021-02-11 15:00:00 11.7 13 Sudoeste 25 Oeste 0 -- -- 70
2021-02-11 14:00:00 11.4 14 Sudoeste 27 Sudoeste 0 -- -- 70
2021-02-11 13:00:00 10.8 15 Sudoeste 27 Sudoeste 0 -- -- 72
2021-02-11 12:00:00 10.5 11 Sudoeste 28 Sudoeste 0 -- -- 73
2021-02-11 11:00:00 9.6 17 Sudoeste 27 Sudoeste 0 -- -- 77
2021-02-11 10:00:00 8.8 17 Sudoeste 30 Oeste 0 -- -- 78
2021-02-11 09:00:00 7.5 10 Sudoeste 22 Sudoeste 0 -- -- 82
2021-02-11 08:00:00 7.2 6 Sudoeste 27 Sudoeste 0 -- -- 81
2021-02-11 07:00:00 7.2 12 Sudoeste 20 Sudoeste 0 -- -- 77
2021-02-11 06:00:00 6.9 8 Sudoeste 17 Sudoeste 0 -- -- 72
2021-02-11 05:00:00 6.9 10 Sudoeste 22 Sudoeste 0 -- -- 71
2021-02-11 04:00:00 7 12 Sudoeste 24 Sudoeste 0 -- -- 67
2021-02-11 03:00:00 7.1 8 Sudoeste 20 Sudoeste 0 -- -- 66
2021-02-11 02:00:00 7.3 13 Sudoeste 29 Sudoeste 0 -- -- 62
2021-02-11 01:00:00 7 9 Sudoeste 17 Oeste 0 -- -- 65
2021-02-11 00:00:00 6.8 10 Sudoeste 17 Sudoeste 0 -- -- 70
2021-02-10 23:00:00 4.9 4 Sudoeste 9 Sudoeste 0 -- -- 79
2021-02-10 22:00:00 4.9 0 Calma 15 Sudoeste 0 -- -- 71
2021-02-10 21:00:00 7.3 8 Sudoeste 16 Oeste 0 -- -- 62
2021-02-10 20:00:00 7.8 5 Sudoeste 17 Sudoeste 0 -- -- 57
2021-02-10 19:00:00 8.4 6 Oeste 17 Sudoeste 0 -- -- 54
2021-02-10 18:00:00 9.9 11 Sudoeste 25 Sudoeste 0 -- -- 49
2021-02-10 17:00:00 11.2 14 Sudoeste 32 Sudoeste 0 -- -- 44
2021-02-10 16:00:00 10.6 15 Sudoeste 30 Oeste 0 -- -- 47
2021-02-10 15:00:00 11.7 11 Sudoeste 30 Sudoeste 0 -- -- 45
2021-02-10 14:00:00 9.3 10 Sudoeste 24 Sudoeste 0 -- -- 50
2021-02-10 13:00:00 9.3 10 Sudoeste 21 Sudoeste 0 -- -- 52
2021-02-10 12:00:00 7.6 8 Sudoeste 21 Sudoeste 0 -- -- 57
2021-02-10 11:00:00 6.7 6 Sudoeste 13 Sudoeste 0 -- -- 65
2021-02-10 10:00:00 4 2 Sur 7 Sudoeste 0 -- -- 88
2021-02-10 09:00:00 0.2 2 Sudoeste 6 Noroeste 0 -- -- 93
2021-02-10 08:00:00 1 4 Sudoeste 6 Sudoeste 0 -- -- 92
2021-02-10 07:00:00 1.8 0 Calma 9 Oeste 0 -- -- 89
2021-02-10 06:00:00 3.2 3 Sudoeste 15 Sudoeste 0 -- -- 83
2021-02-10 05:00:00 4.2 7 Sudoeste 16 Sudoeste 0 -- -- 84
2021-02-10 04:00:00 4.1 10 Sudoeste 27 Sudoeste 0.6 -- -- 85
2021-02-10 03:00:00 5.1 6 Sudoeste 23 Sudoeste 0 -- -- 78
2021-02-10 02:00:00 5.1 9 Sudoeste 26 Sudoeste 0 -- -- 75
2021-02-10 01:00:00 5 10 Sudoeste 27 Sudoeste 0 -- -- 74
2021-02-10 00:00:00 4.7 12 Sudoeste 25 Sudoeste 0 -- -- 75
2021-02-09 23:00:00 5.2 13 Sudoeste 30 Sudoeste 0 -- -- 71
2021-02-09 22:00:00 4.9 15 Sudoeste 39 Sudoeste 0 -- -- 79
2021-02-09 21:00:00 5.2 14 Sudoeste 35 Sudoeste 0 -- -- 74
2021-02-09 20:00:00 6 17 Sudoeste 32 Sudoeste 0 -- -- 71
2021-02-09 19:00:00 6.1 13 Sudoeste 31 Sudoeste 0 -- -- 68
2021-02-09 18:00:00 6.4 15 Sudoeste 33 Sur 0 -- -- 63
2021-02-09 17:00:00 6.5 21 Sudoeste 40 Sudoeste 0 -- -- 64
2021-02-09 16:00:00 7.1 26 Sudoeste 42 Sudoeste 0.1 -- -- 62
2021-02-09 15:00:00 6 22 Sudoeste 37 Sudoeste 0 -- -- 69
2021-02-09 14:00:00 6.1 19 Sudoeste 34 Sudoeste 0 -- -- 74
2021-02-09 13:00:00 6 20 Sudoeste 55 Sudoeste 2.7 -- -- 84
2021-02-09 12:00:00 7.4 27 Sudoeste 62 Sudoeste 2.3 -- -- 83
2021-02-09 11:00:00 7.5 27 Sudoeste 64 Sur 1.6 -- -- 83
2021-02-09 10:00:00 7.4 33 Sudoeste 66 Sudoeste 0.8 -- -- 82
2021-02-09 09:00:00 6.9 31 Sudoeste 63 Sudoeste 0.4 -- -- 83
2021-02-09 08:00:00 6.5 29 Sudoeste 71 Sudoeste 0.1 -- -- 81
2021-02-09 07:00:00 5.5 17 Sudoeste 39 Sudoeste 0.1 -- -- 85
2021-02-09 06:00:00 4.9 19 Sudoeste 39 Sudoeste 0.1 -- -- 81
2021-02-09 05:00:00 5.4 21 Sudoeste 42 Sudoeste 0.2 -- -- 79
2021-02-09 04:00:00 6.2 19 Sudoeste 40 Sudoeste 0 -- -- 77
2021-02-09 03:00:00 6.9 15 Sudoeste 35 Sudoeste 0 -- -- 71
2021-02-09 02:00:00 6.6 15 Sudoeste 31 Sudoeste 0 -- -- 76
2021-02-09 01:00:00 6 4 Sudoeste 22 Sudoeste 0 -- -- 78
2021-02-09 00:00:00 5.7 8 Sudoeste 27 Sudoeste 0 -- -- 78
2021-02-08 23:00:00 3.1 7 Sudoeste 27 Sudoeste 0 -- -- 87
2021-02-08 22:00:00 3.3 3 Sudoeste 10 Sudoeste 0 -- -- 87
2021-02-08 21:00:00 3.4 3 Noroeste 6 Noroeste 0 -- -- 84
2021-02-08 20:00:00 6.1 4 Sudoeste 18 Sudoeste 0 -- -- 70
2021-02-08 19:00:00 6.8 6 Sudoeste 24 Sudoeste 0 -- -- 66
2021-02-08 18:00:00 9.1 14 Sudoeste 29 Sudoeste 0 -- -- 58
2021-02-08 17:00:00 9.2 13 Sudoeste 37 Sudoeste 0 -- -- 60
2021-02-08 16:00:00 8.1 21 Sudoeste 39 Sudoeste 0 -- -- 60
2021-02-08 15:00:00 10.8 19 Sudoeste 40 Sudoeste 0 -- -- 52
2021-02-08 14:00:00 9.3 19 Sudoeste 40 Sudoeste 0 -- -- 57
2021-02-08 13:00:00 7.3 20 Sudoeste 35 Sudoeste 0 -- -- 64
2021-02-08 12:00:00 7 16 Sudoeste 35 Sudoeste 0 -- -- 68
2021-02-08 11:00:00 7.5 16 Sudoeste 35 Sudoeste 0 -- -- 66
2021-02-08 10:00:00 6 9 Sudoeste 30 Oeste 0 -- -- 75
2021-02-08 09:00:00 3.1 5 Sudoeste 12 Sudoeste 0 -- -- 92
2021-02-08 08:00:00 2.8 2 Noroeste 13 Oeste 0 -- -- 93
2021-02-08 07:00:00 3.3 0 Calma 17 Sudoeste 0 -- -- 92
2021-02-08 06:00:00 4.3 12 Sudoeste 19 Oeste 0.1 -- -- 92
2021-02-08 05:00:00 4.5 9 Sudoeste 15 Sudoeste 0 -- -- 91
2021-02-08 04:00:00 4.7 6 Sudoeste 18 Oeste 0 -- -- 86
2021-02-08 03:00:00 5.3 10 Sudoeste 27 Sur 0.4 -- -- 86
2021-02-08 02:00:00 5.3 13 Sudoeste 27 Sudoeste 0 -- -- 85
2021-02-08 01:00:00 4.9 14 Sudoeste 23 Sudoeste 0 -- -- 85
2021-02-08 00:00:00 5.1 12 Sudoeste 38 Sudoeste 0 -- -- 83
2021-02-07 23:00:00 5 15 Sudoeste 31 Sudoeste 0 -- -- 81
2021-02-07 22:00:00 4.9 14 Sudoeste 33 Sur 0 -- -- 82
2021-02-07 21:00:00 5 17 Sudoeste 32 Sudoeste 0 -- -- 78
2021-02-07 20:00:00 4.9 15 Sudoeste 27 Sudoeste 0 -- -- 74
2021-02-07 19:00:00 4.9 10 Sudoeste 24 Sudoeste 0 -- -- 72
2021-02-07 18:00:00 5.3 16 Sudoeste 35 Sudoeste 0 -- -- 64
2021-02-07 17:00:00 5.8 19 Sudoeste 35 Sudoeste 0 -- -- 59
2021-02-07 16:00:00 6.2 15 Sudoeste 30 Oeste 0 -- -- 57
2021-02-07 15:00:00 6.3 17 Sudoeste 31 Oeste 0 -- -- 56
2021-02-07 14:00:00 6 16 Sudoeste 27 Sudoeste 0 -- -- 56
2021-02-07 13:00:00 5.6 11 Sudoeste 26 Sudoeste 0 -- -- 62
2021-02-07 12:00:00 4.4 7 Sudoeste 14 Sudoeste 0 -- -- 78
2021-02-07 11:00:00 1.4 0 Calma 5 Sudoeste 0 -- -- 86
2021-02-07 10:00:00 -0.3 3 Sudoeste 8 Sudoeste 0 -- -- 92
2021-02-07 09:00:00 -2.7 4 Sur 6 Sur 0 -- -- 94
2021-02-07 08:00:00 -2.8 2 Sur 4 Sur 0 -- -- 94
2021-02-07 07:00:00 -2.3 0 Calma 3 Sur 0 -- -- 94
2021-02-07 06:00:00 -2 3 Sur 7 Sur 0 -- -- 94
2021-02-07 05:00:00 -1.6 0 Calma 8 Sur 0 -- -- 94
2021-02-07 04:00:00 -1.2 0 Calma 7 Sur 0 -- -- 94
2021-02-07 03:00:00 -0.7 2 Sur 12 Sur 0 -- -- 93
2021-02-07 02:00:00 -0.3 0 Calma 9 Sur 0 -- -- 93
2021-02-07 01:00:00 0.3 0 Calma 3 Norte 0 -- -- 93
2021-02-07 00:00:00 0.9 2 Nordeste 7 Nordeste 0 -- -- 92
2021-02-06 23:00:00 1.7 5 Nordeste 13 Nordeste 0 -- -- 91
2021-02-06 22:00:00 2.2 5 Nordeste 13 Nordeste 0 -- -- 90
2021-02-06 21:00:00 2.9 8 Nordeste 15 Nordeste 0 -- -- 88
2021-02-06 20:00:00 3.1 7 Nordeste 22 Nordeste 0 -- -- 88
2021-02-06 19:00:00 3.8 6 Nordeste 24 Nordeste 0 -- -- 87
2021-02-06 18:00:00 4.7 6 Nordeste 22 Nordeste 0.1 -- -- 86
2021-02-06 17:00:00 5.2 6 Nordeste 21 Nordeste 0.3 -- -- 87
2021-02-06 16:00:00 5.3 6 Nordeste 19 Nordeste 0.4 -- -- 86
2021-02-06 15:00:00 5.5 4 Norte 21 Nordeste 0.1 -- -- 83
2021-02-06 14:00:00 5.5 9 Nordeste 22 Nordeste 0 -- -- 84
2021-02-06 13:00:00 5.7 5 Nordeste 15 Nordeste 0 -- -- 86
2021-02-06 12:00:00 5.6 4 Nordeste 20 Nordeste 0.1 -- -- 87
2021-02-06 11:00:00 5.6 6 Nordeste 15 Nordeste 0.2 -- -- 88
2021-02-06 10:00:00 5.3 0 Calma 5 Sudeste 0.8 -- -- 92
2021-02-06 09:00:00 5.1 5 Nordeste 13 Nordeste 0.7 -- -- 88
2021-02-06 08:00:00 5 2 Nordeste 13 Nordeste 0.3 -- -- 90
2021-02-06 07:00:00 5.3 4 Este 11 Nordeste 0.9 -- -- 92
2021-02-06 06:00:00 6.1 3 Este 9 Norte 1.2 -- -- 94
2021-02-06 05:00:00 6.7 0 Calma 4 Sudoeste 2.3 -- -- 94
2021-02-06 04:00:00 6.8 0 Calma 12 Este 4.8 -- -- 93
2021-02-06 03:00:00 6.9 4 Este 10 Este 0.7 -- -- 93
2021-02-06 02:00:00 7.2 2 Este 6 Nordeste 0.1 -- -- 93
2021-02-06 01:00:00 7.3 2 Sudoeste 10 Este 2.3 -- -- 93
2021-02-06 00:00:00 7.4 3 Este 11 Nordeste 0 -- -- 91
2021-02-05 23:00:00 7.3 3 Nordeste 10 Este 0 -- -- 90
2021-02-05 22:00:00 7.2 5 Este 14 Sudeste 0 -- -- 89
2021-02-05 21:00:00 7.2 4 Este 15 Este 0 -- -- 89
2021-02-05 20:00:00 7.3 7 Nordeste 20 Nordeste 0 -- -- 89
2021-02-05 19:00:00 7.5 5 Nordeste 19 Nordeste 0 -- -- 90
2021-02-05 18:00:00 7.8 6 Nordeste 14 Nordeste 0 -- -- 90
2021-02-05 17:00:00 8.5 5 Norte 15 Nordeste 0 -- -- 86
2021-02-05 16:00:00 9.3 7 Nordeste 19 Nordeste 0 -- -- 84
2021-02-05 15:00:00 9.8 0 Calma 8 Este 0 -- -- 88
2021-02-05 14:00:00 8.2 3 Sudoeste 8 Sudoeste 0 -- -- 91
2021-02-05 13:00:00 7.6 0 Calma 6 Sudoeste 0.5 -- -- 92
2021-02-05 12:00:00 7 2 Sudoeste 9 Sudoeste 0.2 -- -- 93
2021-02-05 11:00:00 6.5 3 Oeste 9 Sudoeste 0 -- -- 94
2021-02-05 10:00:00 6.1 2 Este 6 Este 0.3 -- -- 94
2021-02-05 09:00:00 5.8 0 Calma 7 Sudoeste 0.7 -- -- 94
2021-02-05 08:00:00 5.6 0 Calma 4 Este 0.6 -- -- 94
2021-02-05 07:00:00 5.6 0 Calma 5 Sudoeste 3.6 -- -- 94
2021-02-05 06:00:00 5.6 0 Calma 4 Nordeste 0.1 -- -- 94
2021-02-05 05:00:00 5.6 0 Calma 3 Oeste 0 -- -- 94
2021-02-05 04:00:00 5.7 0 Calma 5 Sudoeste 0.1 -- -- 94
2021-02-05 03:00:00 5.7 2 Nordeste 6 Nordeste 0.2 -- -- 94
2021-02-05 02:00:00 5.7 0 Calma 7 Noroeste 0 -- -- 94
2021-02-05 01:00:00 5.6 0 Calma 6 Sudoeste 0 -- -- 94
2021-02-05 00:00:00 5.4 0 Calma 5 Sudoeste 0 -- -- 94
2021-02-04 23:00:00 5.5 0 Calma 5 Sur 0 -- -- 94
2021-02-04 22:00:00 5.5 0 Calma 10 Sudoeste 0 -- -- 94
2021-02-04 21:00:00 5.5 3 Sudoeste 5 Sudoeste 0.1 -- -- 94
2021-02-04 20:00:00 5.7 0 Calma 8 Sudoeste 0.9 -- -- 94
2021-02-04 19:00:00 5.9 0 Calma 11 Sudoeste 1.7 -- -- 94
2021-02-04 18:00:00 6.2 0 Calma 9 Sudoeste 0.3 -- -- 92
2021-02-04 17:00:00 6.7 0 Calma 12 Sudoeste 0.9 -- -- 90
2021-02-04 16:00:00 7.2 7 Oeste 12 Sudoeste 1.2 -- -- 84
2021-02-04 15:00:00 8.2 3 Sudoeste 13 Oeste 0.2 -- -- 80
2021-02-04 14:00:00 9.3 4 Oeste 13 Sudoeste 0.1 -- -- 68
2021-02-04 13:00:00 10.3 5 Sudoeste 10 Sudoeste 0 -- -- 61
2021-02-04 12:00:00 10.2 6 Sudoeste 10 Sudoeste 0 -- -- 68
2021-02-04 11:00:00 9.4 8 Sudoeste 13 Sudoeste 0 -- -- 75
2021-02-04 10:00:00 8.3 4 Sur 9 Sur 0 -- -- 78
2021-02-04 09:00:00 7.7 2 Sudoeste 18 Oeste 0 -- -- 78
2021-02-04 08:00:00 8.1 8 Oeste 15 Oeste 0 -- -- 76
2021-02-04 07:00:00 7.7 6 Oeste 13 Oeste 0 -- -- 77
2021-02-04 06:00:00 7.6 4 Oeste 14 Oeste 0 -- -- 78
2021-02-04 05:00:00 7.8 8 Oeste 17 Sudoeste 0 -- -- 78
2021-02-04 04:00:00 8.1 7 Sudoeste 22 Sudoeste 0 -- -- 75
2021-02-04 03:00:00 8.5 11 Sudoeste 38 Sudoeste 0 -- -- 75
2021-02-04 02:00:00 8.8 18 Sudoeste 42 Sudoeste 0 -- -- 75
2021-02-04 01:00:00 8.7 21 Sudoeste 36 Sudoeste 0 -- -- 75
2021-02-04 00:00:00 8.9 18 Sudoeste 32 Sudoeste 0 -- -- 76
2021-02-03 23:00:00 8.8 14 Sudoeste 37 Sudoeste 0 -- -- 75
2021-02-03 22:00:00 9.1 17 Sur 39 Sudoeste 0 -- -- 78
2021-02-03 21:00:00 9.9 15 Sur 30 Sur 0 -- -- 70
2021-02-03 20:00:00 10 10 Sudoeste 26 Sudoeste 0 -- -- 67
2021-02-03 19:00:00 10.4 9 Sudoeste 24 Sudoeste 0 -- -- 62
2021-02-03 18:00:00 11.1 13 Sudoeste 29 Sudoeste 0 -- -- 57
2021-02-03 17:00:00 11.7 14 Sudoeste 32 Sudoeste 0 -- -- 52
2021-02-03 16:00:00 12.1 14 Sudoeste 32 Sudoeste 0 -- -- 49
2021-02-03 15:00:00 13.7 18 Sudoeste 42 Oeste 0 -- -- 45
2021-02-03 14:00:00 13 22 Sudoeste 44 Sudoeste 0 -- -- 47
2021-02-03 13:00:00 11.6 24 Sudoeste 44 Sudoeste 0 -- -- 52
2021-02-03 12:00:00 11.3 27 Sudoeste 47 Sudoeste 0 -- -- 54
2021-02-03 11:00:00 10.5 22 Sudoeste 44 Sudoeste 0 -- -- 66
2021-02-03 10:00:00 10 18 Sudoeste 45 Sudoeste 0 -- -- 74
2021-02-03 09:00:00 10.1 24 Sudoeste 44 Sudoeste 0 -- -- 76
2021-02-03 08:00:00 9.2 18 Sudoeste 41 Sudoeste 0.2 -- -- 87
2021-02-03 07:00:00 9.1 21 Sudoeste 46 Sudoeste 0.1 -- -- 90
2021-02-03 06:00:00 9.2 24 Sudoeste 54 Sudoeste 0.1 -- -- 88
2021-02-03 05:00:00 8.9 24 Sudoeste 54 Sudoeste 0.2 -- -- 88
2021-02-03 04:00:00 8.6 26 Sudoeste 55 Sur 0.1 -- -- 87
2021-02-03 03:00:00 8.9 29 Sudoeste 62 Sudoeste 0 -- -- 82
2021-02-03 02:00:00 9.4 28 Sudoeste 67 Sudoeste 0 -- -- 77
2021-02-03 01:00:00 9.7 28 Sudoeste 63 Sudoeste 0 -- -- 73
2021-02-03 00:00:00 10.8 32 Sudoeste 63 Sudoeste 0 -- -- 66